sensor_id;sensor_type;location;lat;lon;timestamp;P1;durP1;ratioP1;P2;durP2;ratioP2
42364;SDS011;28498;54.400;18.566;2023-03-01T00:01:01;9.82;;;4.57;;
42364;SDS011;28498;54.400;18.566;2023-03-01T00:03:32;16.13;;;4.60;;
42364;SDS011;28498;54.400;18.566;2023-03-01T00:06:00;10.88;;;4.63;;
42364;SDS011;28498;54.400;18.566;2023-03-01T00:08:27;7.80;;;4.13;;
42364;SDS011;28498;54.400;18.566;2023-03-01T00:11:00;10.13;;;4.70;;
42364;SDS011;28498;54.400;18.566;2023-03-01T00:13:31;8.82;;;4.03;;
42364;SDS011;28498;54.400;18.566;2023-03-01T00:15:58;8.27;;;3.95;;
42364;SDS011;28498;54.400;18.566;2023-03-01T00:18:27;6.20;;;4.03;;
42364;SDS011;28498;54.400;18.566;2023-03-01T00:20:54;11.40;;;3.90;;
42364;SDS011;28498;54.400;18.566;2023-03-01T00:23:22;11.10;;;4.63;;
42364;SDS011;28498;54.400;18.566;2023-03-01T00:25:50;11.40;;;4.88;;
42364;SDS011;28498;54.400;18.566;2023-03-01T00:28:17;6.53;;;3.55;;
42364;SDS011;28498;54.400;18.566;2023-03-01T00:30:45;8.75;;;4.30;;
42364;SDS011;28498;54.400;18.566;2023-03-01T00:33:12;9.35;;;4.15;;
42364;SDS011;28498;54.400;18.566;2023-03-01T00:35:40;7.25;;;3.78;;
42364;SDS011;28498;54.400;18.566;2023-03-01T00:38:07;8.07;;;3.80;;
42364;SDS011;28498;54.400;18.566;2023-03-01T00:40:34;9.15;;;4.13;;
42364;SDS011;28498;54.400;18.566;2023-03-01T00:43:02;11.00;;;4.75;;
42364;SDS011;28498;54.400;18.566;2023-03-01T00:45:30;8.50;;;3.70;;
42364;SDS011;28498;54.400;18.566;2023-03-01T00:47:59;16.35;;;5.65;;
42364;SDS011;28498;54.400;18.566;2023-03-01T00:50:26;10.85;;;5.78;;
42364;SDS011;28498;54.400;18.566;2023-03-01T00:52:54;16.98;;;5.60;;
42364;SDS011;28498;54.400;18.566;2023-03-01T00:55:22;11.68;;;4.75;;
42364;SDS011;28498;54.400;18.566;2023-03-01T00:57:49;11.90;;;5.35;;
42364;SDS011;28498;54.400;18.566;2023-03-01T01:00:16;8.88;;;4.22;;
42364;SDS011;28498;54.400;18.566;2023-03-01T01:02:43;12.27;;;6.00;;
42364;SDS011;28498;54.400;18.566;2023-03-01T01:05:11;14.10;;;5.40;;
42364;SDS011;28498;54.400;18.566;2023-03-01T01:07:38;11.48;;;4.95;;
42364;SDS011;28498;54.400;18.566;2023-03-01T01:10:05;10.13;;;4.70;;
42364;SDS011;28498;54.400;18.566;2023-03-01T01:12:33;9.20;;;5.03;;
42364;SDS011;28498;54.400;18.566;2023-03-01T01:15:00;10.45;;;5.10;;
42364;SDS011;28498;54.400;18.566;2023-03-01T01:17:27;12.10;;;5.43;;
42364;SDS011;28498;54.400;18.566;2023-03-01T01:19:54;11.30;;;5.78;;
42364;SDS011;28498;54.400;18.566;2023-03-01T01:22:21;11.20;;;4.95;;
42364;SDS011;28498;54.400;18.566;2023-03-01T01:24:48;17.23;;;7.50;;
42364;SDS011;28498;54.400;18.566;2023-03-01T01:27:15;12.65;;;5.72;;
42364;SDS011;28498;54.400;18.566;2023-03-01T01:29:41;11.52;;;5.78;;
42364;SDS011;28498;54.400;18.566;2023-03-01T01:32:08;14.15;;;6.05;;
42364;SDS011;28498;54.400;18.566;2023-03-01T01:34:35;11.38;;;5.85;;
42364;SDS011;28498;54.400;18.566;2023-03-01T01:37:02;12.60;;;4.90;;
42364;SDS011;28498;54.400;18.566;2023-03-01T01:39:30;15.30;;;6.03;;
42364;SDS011;28498;54.400;18.566;2023-03-01T01:41:57;14.70;;;5.82;;
42364;SDS011;28498;54.400;18.566;2023-03-01T01:44:24;9.40;;;4.72;;
42364;SDS011;28498;54.400;18.566;2023-03-01T01:46:55;16.25;;;5.57;;
42364;SDS011;28498;54.400;18.566;2023-03-01T01:49:39;11.27;;;5.50;;
42364;SDS011;28498;54.400;18.566;2023-03-01T01:52:22;14.35;;;6.05;;
42364;SDS011;28498;54.400;18.566;2023-03-01T01:55:05;16.73;;;5.95;;
42364;SDS011;28498;54.400;18.566;2023-03-01T02:00:18;14.70;;;7.20;;
42364;SDS011;28498;54.400;18.566;2023-03-01T02:02:50;15.52;;;5.60;;
42364;SDS011;28498;54.400;18.566;2023-03-01T02:08:21;17.20;;;6.22;;
42364;SDS011;28498;54.400;18.566;2023-03-01T02:10:52;14.02;;;6.70;;
42364;SDS011;28498;54.400;18.566;2023-03-01T02:13:22;14.63;;;7.05;;
42364;SDS011;28498;54.400;18.566;2023-03-01T02:15:49;15.27;;;6.75;;
42364;SDS011;28498;54.400;18.566;2023-03-01T02:18:18;18.10;;;7.82;;
42364;SDS011;28498;54.400;18.566;2023-03-01T02:23:29;18.20;;;7.82;;
42364;SDS011;28498;54.400;18.566;2023-03-01T02:28:35;21.13;;;8.57;;
42364;SDS011;28498;54.400;18.566;2023-03-01T02:31:08;18.58;;;8.32;;
42364;SDS011;28498;54.400;18.566;2023-03-01T02:33:55;20.67;;;9.32;;
42364;SDS011;28498;54.400;18.566;2023-03-01T02:36:24;18.23;;;8.38;;
42364;SDS011;28498;54.400;18.566;2023-03-01T02:38:56;18.00;;;8.73;;
42364;SDS011;28498;54.400;18.566;2023-03-01T02:41:26;25.20;;;8.95;;
42364;SDS011;28498;54.400;18.566;2023-03-01T02:43:56;19.92;;;9.38;;
42364;SDS011;28498;54.400;18.566;2023-03-01T02:46:24;22.90;;;10.30;;
42364;SDS011;28498;54.400;18.566;2023-03-01T02:48:54;22.73;;;9.88;;
42364;SDS011;28498;54.400;18.566;2023-03-01T02:51:33;22.48;;;9.70;;
42364;SDS011;28498;54.400;18.566;2023-03-01T02:56:41;17.65;;;8.68;;
42364;SDS011;28498;54.400;18.566;2023-03-01T02:59:10;25.35;;;10.65;;
42364;SDS011;28498;54.400;18.566;2023-03-01T03:01:37;23.88;;;9.13;;
42364;SDS011;28498;54.400;18.566;2023-03-01T03:04:06;21.58;;;9.35;;
42364;SDS011;28498;54.400;18.566;2023-03-01T03:06:34;23.60;;;9.40;;
42364;SDS011;28498;54.400;18.566;2023-03-01T03:09:02;22.35;;;9.32;;
42364;SDS011;28498;54.400;18.566;2023-03-01T03:11:30;18.75;;;8.57;;
42364;SDS011;28498;54.400;18.566;2023-03-01T03:13:58;21.17;;;9.52;;
42364;SDS011;28498;54.400;18.566;2023-03-01T03:16:25;27.38;;;10.93;;
42364;SDS011;28498;54.400;18.566;2023-03-01T03:18:52;26.67;;;10.32;;
42364;SDS011;28498;54.400;18.566;2023-03-01T03:21:19;23.08;;;9.20;;
42364;SDS011;28498;54.400;18.566;2023-03-01T03:23:46;31.23;;;12.52;;
42364;SDS011;28498;54.400;18.566;2023-03-01T03:26:13;19.67;;;9.23;;
42364;SDS011;28498;54.400;18.566;2023-03-01T03:28:41;30.42;;;11.52;;
42364;SDS011;28498;54.400;18.566;2023-03-01T03:31:08;31.63;;;11.52;;
42364;SDS011;28498;54.400;18.566;2023-03-01T03:33:35;25.70;;;11.45;;
42364;SDS011;28498;54.400;18.566;2023-03-01T03:36:02;24.67;;;10.88;;
42364;SDS011;28498;54.400;18.566;2023-03-01T03:38:30;26.70;;;10.15;;
42364;SDS011;28498;54.400;18.566;2023-03-01T03:41:01;28.25;;;11.15;;
42364;SDS011;28498;54.400;18.566;2023-03-01T03:43:31;28.75;;;10.77;;
42364;SDS011;28498;54.400;18.566;2023-03-01T03:46:01;26.20;;;12.18;;
42364;SDS011;28498;54.400;18.566;2023-03-01T03:48:36;25.60;;;11.65;;
42364;SDS011;28498;54.400;18.566;2023-03-01T03:51:11;28.63;;;11.60;;
42364;SDS011;28498;54.400;18.566;2023-03-01T03:56:09;23.80;;;10.55;;
42364;SDS011;28498;54.400;18.566;2023-03-01T03:58:37;25.45;;;10.98;;
42364;SDS011;28498;54.400;18.566;2023-03-01T04:01:04;33.00;;;12.63;;
42364;SDS011;28498;54.400;18.566;2023-03-01T04:03:32;29.92;;;12.43;;
42364;SDS011;28498;54.400;18.566;2023-03-01T04:06:01;28.88;;;11.13;;
42364;SDS011;28498;54.400;18.566;2023-03-01T04:08:30;25.60;;;10.38;;
42364;SDS011;28498;54.400;18.566;2023-03-01T04:10:59;29.48;;;11.27;;
42364;SDS011;28498;54.400;18.566;2023-03-01T04:13:47;28.95;;;13.13;;
42364;SDS011;28498;54.400;18.566;2023-03-01T04:16:14;40.22;;;14.02;;
42364;SDS011;28498;54.400;18.566;2023-03-01T04:18:42;35.13;;;11.90;;
42364;SDS011;28498;54.400;18.566;2023-03-01T04:21:09;28.77;;;11.95;;
42364;SDS011;28498;54.400;18.566;2023-03-01T04:23:37;37.38;;;14.02;;
42364;SDS011;28498;54.400;18.566;2023-03-01T04:26:07;25.45;;;10.27;;
42364;SDS011;28498;54.400;18.566;2023-03-01T04:28:35;33.85;;;14.00;;
42364;SDS011;28498;54.400;18.566;2023-03-01T04:31:08;32.58;;;12.68;;
42364;SDS011;28498;54.400;18.566;2023-03-01T04:33:40;34.13;;;12.73;;
42364;SDS011;28498;54.400;18.566;2023-03-01T04:36:09;30.63;;;12.57;;
42364;SDS011;28498;54.400;18.566;2023-03-01T04:38:37;30.80;;;11.77;;
42364;SDS011;28498;54.400;18.566;2023-03-01T04:41:05;29.77;;;11.60;;
42364;SDS011;28498;54.400;18.566;2023-03-01T04:43:34;36.42;;;13.98;;
42364;SDS011;28498;54.400;18.566;2023-03-01T04:46:06;33.35;;;11.18;;
42364;SDS011;28498;54.400;18.566;2023-03-01T04:48:40;30.58;;;12.10;;
42364;SDS011;28498;54.400;18.566;2023-03-01T04:51:08;29.25;;;11.98;;
42364;SDS011;28498;54.400;18.566;2023-03-01T04:53:35;28.95;;;11.43;;
42364;SDS011;28498;54.400;18.566;2023-03-01T04:56:03;27.15;;;9.82;;
42364;SDS011;28498;54.400;18.566;2023-03-01T04:58:30;36.92;;;12.50;;
42364;SDS011;28498;54.400;18.566;2023-03-01T05:00:57;31.90;;;11.80;;
42364;SDS011;28498;54.400;18.566;2023-03-01T05:03:24;23.33;;;9.27;;
42364;SDS011;28498;54.400;18.566;2023-03-01T05:05:52;30.05;;;13.15;;
42364;SDS011;28498;54.400;18.566;2023-03-01T05:08:19;34.67;;;12.80;;
42364;SDS011;28498;54.400;18.566;2023-03-01T05:10:51;33.25;;;12.20;;
42364;SDS011;28498;54.400;18.566;2023-03-01T05:13:19;27.55;;;10.32;;
42364;SDS011;28498;54.400;18.566;2023-03-01T05:15:48;28.23;;;11.73;;
42364;SDS011;28498;54.400;18.566;2023-03-01T05:18:19;33.72;;;11.52;;
42364;SDS011;28498;54.400;18.566;2023-03-01T05:20:47;32.42;;;10.82;;
42364;SDS011;28498;54.400;18.566;2023-03-01T05:23:13;30.88;;;12.00;;
42364;SDS011;28498;54.400;18.566;2023-03-01T05:25:40;34.85;;;13.15;;
42364;SDS011;28498;54.400;18.566;2023-03-01T05:28:10;27.65;;;12.02;;
42364;SDS011;28498;54.400;18.566;2023-03-01T05:30:38;32.83;;;11.40;;
42364;SDS011;28498;54.400;18.566;2023-03-01T05:33:05;28.85;;;11.55;;
42364;SDS011;28498;54.400;18.566;2023-03-01T05:38:10;37.40;;;12.57;;
42364;SDS011;28498;54.400;18.566;2023-03-01T05:40:41;28.88;;;11.38;;
42364;SDS011;28498;54.400;18.566;2023-03-01T05:43:10;28.38;;;10.90;;
42364;SDS011;28498;54.400;18.566;2023-03-01T05:45:38;35.63;;;13.50;;
42364;SDS011;28498;54.400;18.566;2023-03-01T05:48:06;32.65;;;12.52;;
42364;SDS011;28498;54.400;18.566;2023-03-01T05:50:37;27.38;;;10.85;;
42364;SDS011;28498;54.400;18.566;2023-03-01T05:53:07;28.00;;;11.20;;
42364;SDS011;28498;54.400;18.566;2023-03-01T05:55:37;27.92;;;11.63;;
42364;SDS011;28498;54.400;18.566;2023-03-01T05:58:07;30.45;;;13.45;;
42364;SDS011;28498;54.400;18.566;2023-03-01T06:00:36;28.20;;;10.95;;
42364;SDS011;28498;54.400;18.566;2023-03-01T06:03:03;28.42;;;12.20;;
42364;SDS011;28498;54.400;18.566;2023-03-01T06:05:30;33.17;;;11.32;;
42364;SDS011;28498;54.400;18.566;2023-03-01T06:08:00;29.08;;;11.43;;
42364;SDS011;28498;54.400;18.566;2023-03-01T06:10:28;32.60;;;12.80;;
42364;SDS011;28498;54.400;18.566;2023-03-01T06:12:55;36.00;;;11.38;;
42364;SDS011;28498;54.400;18.566;2023-03-01T06:15:23;28.00;;;11.38;;
42364;SDS011;28498;54.400;18.566;2023-03-01T06:17:50;29.35;;;12.75;;
42364;SDS011;28498;54.400;18.566;2023-03-01T06:20:23;30.80;;;13.02;;
42364;SDS011;28498;54.400;18.566;2023-03-01T06:22:52;31.83;;;10.80;;
42364;SDS011;28498;54.400;18.566;2023-03-01T06:25:20;20.00;;;8.07;;
42364;SDS011;28498;54.400;18.566;2023-03-01T06:27:48;29.33;;;10.68;;
42364;SDS011;28498;54.400;18.566;2023-03-01T06:30:16;30.05;;;10.52;;
42364;SDS011;28498;54.400;18.566;2023-03-01T06:32:44;30.48;;;12.18;;
42364;SDS011;28498;54.400;18.566;2023-03-01T06:35:13;27.45;;;10.75;;
42364;SDS011;28498;54.400;18.566;2023-03-01T06:37:41;23.50;;;10.82;;
42364;SDS011;28498;54.400;18.566;2023-03-01T06:40:08;32.50;;;11.80;;
42364;SDS011;28498;54.400;18.566;2023-03-01T06:42:38;34.97;;;11.63;;
42364;SDS011;28498;54.400;18.566;2023-03-01T06:45:07;25.15;;;10.57;;
42364;SDS011;28498;54.400;18.566;2023-03-01T06:47:36;22.42;;;9.35;;
42364;SDS011;28498;54.400;18.566;2023-03-01T06:50:03;26.20;;;9.95;;
42364;SDS011;28498;54.400;18.566;2023-03-01T06:52:30;21.15;;;9.57;;
42364;SDS011;28498;54.400;18.566;2023-03-01T06:54:57;24.63;;;9.90;;
42364;SDS011;28498;54.400;18.566;2023-03-01T06:57:25;23.48;;;10.57;;
42364;SDS011;28498;54.400;18.566;2023-03-01T06:59:52;21.90;;;8.63;;
42364;SDS011;28498;54.400;18.566;2023-03-01T07:02:19;19.85;;;9.05;;
42364;SDS011;28498;54.400;18.566;2023-03-01T07:04:47;24.65;;;9.15;;
42364;SDS011;28498;54.400;18.566;2023-03-01T07:07:16;26.67;;;10.52;;
42364;SDS011;28498;54.400;18.566;2023-03-01T07:09:44;20.15;;;8.65;;
42364;SDS011;28498;54.400;18.566;2023-03-01T07:12:12;26.23;;;11.02;;
42364;SDS011;28498;54.400;18.566;2023-03-01T07:14:39;22.55;;;9.45;;
42364;SDS011;28498;54.400;18.566;2023-03-01T07:17:06;20.15;;;9.00;;
42364;SDS011;28498;54.400;18.566;2023-03-01T07:19:33;22.23;;;9.93;;
42364;SDS011;28498;54.400;18.566;2023-03-01T07:22:00;18.63;;;8.55;;
42364;SDS011;28498;54.400;18.566;2023-03-01T07:24:27;29.52;;;9.63;;
42364;SDS011;28498;54.400;18.566;2023-03-01T07:26:54;20.65;;;9.60;;
42364;SDS011;28498;54.400;18.566;2023-03-01T07:29:21;19.00;;;8.48;;
42364;SDS011;28498;54.400;18.566;2023-03-01T07:31:48;24.00;;;9.55;;
42364;SDS011;28498;54.400;18.566;2023-03-01T07:34:15;24.45;;;9.57;;
42364;SDS011;28498;54.400;18.566;2023-03-01T07:36:42;21.20;;;8.50;;
42364;SDS011;28498;54.400;18.566;2023-03-01T07:39:11;24.17;;;8.45;;
42364;SDS011;28498;54.400;18.566;2023-03-01T07:41:38;21.63;;;7.70;;
42364;SDS011;28498;54.400;18.566;2023-03-01T07:44:05;18.65;;;8.88;;
42364;SDS011;28498;54.400;18.566;2023-03-01T07:46:32;20.95;;;8.80;;
42364;SDS011;28498;54.400;18.566;2023-03-01T07:48:59;19.98;;;8.73;;
42364;SDS011;28498;54.400;18.566;2023-03-01T07:51:26;22.63;;;9.02;;
42364;SDS011;28498;54.400;18.566;2023-03-01T07:53:53;18.63;;;9.07;;
42364;SDS011;28498;54.400;18.566;2023-03-01T07:56:20;20.55;;;9.38;;
42364;SDS011;28498;54.400;18.566;2023-03-01T07:58:48;20.00;;;8.55;;
42364;SDS011;28498;54.400;18.566;2023-03-01T08:01:17;17.17;;;8.02;;
42364;SDS011;28498;54.400;18.566;2023-03-01T08:03:46;21.42;;;9.25;;
42364;SDS011;28498;54.400;18.566;2023-03-01T08:06:13;15.57;;;7.93;;
42364;SDS011;28498;54.400;18.566;2023-03-01T08:08:41;16.33;;;7.72;;
42364;SDS011;28498;54.400;18.566;2023-03-01T08:11:12;13.80;;;7.75;;
42364;SDS011;28498;54.400;18.566;2023-03-01T08:13:41;19.52;;;7.47;;
42364;SDS011;28498;54.400;18.566;2023-03-01T08:16:12;19.40;;;8.57;;
42364;SDS011;28498;54.400;18.566;2023-03-01T08:18:41;18.20;;;8.25;;
42364;SDS011;28498;54.400;18.566;2023-03-01T08:21:10;22.48;;;8.35;;
42364;SDS011;28498;54.400;18.566;2023-03-01T08:23:38;18.98;;;8.60;;
42364;SDS011;28498;54.400;18.566;2023-03-01T08:26:07;17.60;;;7.80;;
42364;SDS011;28498;54.400;18.566;2023-03-01T08:28:36;18.63;;;8.07;;
42364;SDS011;28498;54.400;18.566;2023-03-01T08:31:12;16.70;;;7.40;;
42364;SDS011;28498;54.400;18.566;2023-03-01T08:33:40;18.08;;;9.10;;
42364;SDS011;28498;54.400;18.566;2023-03-01T08:36:07;17.00;;;8.18;;
42364;SDS011;28498;54.400;18.566;2023-03-01T08:38:35;15.90;;;7.63;;
42364;SDS011;28498;54.400;18.566;2023-03-01T08:41:02;15.57;;;8.13;;
42364;SDS011;28498;54.400;18.566;2023-03-01T08:43:30;17.80;;;8.27;;
42364;SDS011;28498;54.400;18.566;2023-03-01T08:45:57;18.00;;;8.80;;
42364;SDS011;28498;54.400;18.566;2023-03-01T08:48:25;19.58;;;7.85;;
42364;SDS011;28498;54.400;18.566;2023-03-01T08:50:54;17.40;;;8.25;;
42364;SDS011;28498;54.400;18.566;2023-03-01T08:53:21;15.88;;;8.05;;
42364;SDS011;28498;54.400;18.566;2023-03-01T08:55:48;15.10;;;8.05;;
42364;SDS011;28498;54.400;18.566;2023-03-01T08:58:16;13.30;;;7.22;;
42364;SDS011;28498;54.400;18.566;2023-03-01T09:00:43;16.88;;;7.90;;
42364;SDS011;28498;54.400;18.566;2023-03-01T09:03:10;14.38;;;7.00;;
42364;SDS011;28498;54.400;18.566;2023-03-01T09:05:36;16.30;;;7.88;;
42364;SDS011;28498;54.400;18.566;2023-03-01T09:08:04;17.02;;;7.13;;
42364;SDS011;28498;54.400;18.566;2023-03-01T09:10:31;14.65;;;7.53;;
42364;SDS011;28498;54.400;18.566;2023-03-01T09:12:58;13.98;;;7.15;;
42364;SDS011;28498;54.400;18.566;2023-03-01T09:15:25;17.52;;;8.32;;
42364;SDS011;28498;54.400;18.566;2023-03-01T09:17:52;17.40;;;6.97;;
42364;SDS011;28498;54.400;18.566;2023-03-01T09:20:18;19.70;;;8.02;;
42364;SDS011;28498;54.400;18.566;2023-03-01T09:22:45;18.80;;;7.70;;
42364;SDS011;28498;54.400;18.566;2023-03-01T09:25:13;13.65;;;7.03;;
42364;SDS011;28498;54.400;18.566;2023-03-01T09:27:40;19.33;;;7.63;;
42364;SDS011;28498;54.400;18.566;2023-03-01T09:30:07;13.15;;;7.22;;
42364;SDS011;28498;54.400;18.566;2023-03-01T09:32:35;15.95;;;8.00;;
42364;SDS011;28498;54.400;18.566;2023-03-01T09:35:03;16.95;;;7.82;;
42364;SDS011;28498;54.400;18.566;2023-03-01T09:37:31;16.95;;;7.65;;
42364;SDS011;28498;54.400;18.566;2023-03-01T09:40:00;14.13;;;7.43;;
42364;SDS011;28498;54.400;18.566;2023-03-01T09:42:27;17.25;;;7.57;;
42364;SDS011;28498;54.400;18.566;2023-03-01T09:47:28;15.75;;;7.78;;
42364;SDS011;28498;54.400;18.566;2023-03-01T09:50:01;14.07;;;7.55;;
42364;SDS011;28498;54.400;18.566;2023-03-01T10:00:59;13.43;;;7.22;;
42364;SDS011;28498;54.400;18.566;2023-03-01T10:07:12;16.02;;;7.57;;
42364;SDS011;28498;54.400;18.566;2023-03-01T10:09:37;18.35;;;8.10;;
42364;SDS011;28498;54.400;18.566;2023-03-01T10:12:40;14.02;;;8.25;;
42364;SDS011;28498;54.400;18.566;2023-03-01T10:15:08;18.27;;;7.45;;
42364;SDS011;28498;54.400;18.566;2023-03-01T10:22:51;17.08;;;8.77;;
42364;SDS011;28498;54.400;18.566;2023-03-01T10:25:36;17.55;;;8.55;;
42364;SDS011;28498;54.400;18.566;2023-03-01T10:31:17;17.40;;;9.00;;
42364;SDS011;28498;54.400;18.566;2023-03-01T10:33:48;16.50;;;9.45;;
42364;SDS011;28498;54.400;18.566;2023-03-01T10:36:21;20.33;;;10.55;;
42364;SDS011;28498;54.400;18.566;2023-03-01T10:41:21;22.60;;;10.15;;
42364;SDS011;28498;54.400;18.566;2023-03-01T10:43:50;23.58;;;11.68;;
42364;SDS011;28498;54.400;18.566;2023-03-01T10:46:35;24.05;;;10.90;;
42364;SDS011;28498;54.400;18.566;2023-03-01T10:51:39;42.05;;;22.20;;
42364;SDS011;28498;54.400;18.566;2023-03-01T10:54:18;23.15;;;11.55;;
42364;SDS011;28498;54.400;18.566;2023-03-01T10:56:54;16.50;;;9.27;;
42364;SDS011;28498;54.400;18.566;2023-03-01T10:59:35;14.45;;;7.97;;
42364;SDS011;28498;54.400;18.566;2023-03-01T11:05:39;17.02;;;8.13;;
42364;SDS011;28498;54.400;18.566;2023-03-01T11:07:58;18.35;;;9.93;;
42364;SDS011;28498;54.400;18.566;2023-03-01T11:10:27;19.08;;;8.70;;
42364;SDS011;28498;54.400;18.566;2023-03-01T11:13:05;15.65;;;8.65;;
42364;SDS011;28498;54.400;18.566;2023-03-01T11:15:34;17.10;;;8.70;;
42364;SDS011;28498;54.400;18.566;2023-03-01T11:18:02;17.08;;;8.15;;
42364;SDS011;28498;54.400;18.566;2023-03-01T11:20:39;18.17;;;9.00;;
42364;SDS011;28498;54.400;18.566;2023-03-01T11:23:10;22.05;;;9.52;;
42364;SDS011;28498;54.400;18.566;2023-03-01T11:25:43;20.35;;;9.27;;
42364;SDS011;28498;54.400;18.566;2023-03-01T11:28:19;18.75;;;9.70;;
42364;SDS011;28498;54.400;18.566;2023-03-01T11:30:59;25.45;;;10.82;;
42364;SDS011;28498;54.400;18.566;2023-03-01T11:41:40;20.45;;;9.70;;
42364;SDS011;28498;54.400;18.566;2023-03-01T11:44:16;20.95;;;9.88;;
42364;SDS011;28498;54.400;18.566;2023-03-01T11:47:27;18.10;;;8.93;;
42364;SDS011;28498;54.400;18.566;2023-03-01T11:50:18;17.63;;;9.27;;
42364;SDS011;28498;54.400;18.566;2023-03-01T11:56:01;22.15;;;10.15;;
42364;SDS011;28498;54.400;18.566;2023-03-01T12:06:59;17.52;;;9.77;;
42364;SDS011;28498;54.400;18.566;2023-03-01T12:18:01;18.77;;;8.93;;
42364;SDS011;28498;54.400;18.566;2023-03-01T12:26:10;19.30;;;10.32;;
42364;SDS011;28498;54.400;18.566;2023-03-01T12:51:26;21.15;;;9.90;;
42364;SDS011;28498;54.400;18.566;2023-03-01T12:53:57;20.00;;;9.10;;
42364;SDS011;28498;54.400;18.566;2023-03-01T12:56:29;19.58;;;10.18;;
42364;SDS011;28498;54.400;18.566;2023-03-01T12:59:15;19.17;;;10.27;;
42364;SDS011;28498;54.400;18.566;2023-03-01T13:02:02;18.92;;;10.07;;
42364;SDS011;28498;54.400;18.566;2023-03-01T13:04:40;17.23;;;9.32;;
42364;SDS011;28498;54.400;18.566;2023-03-01T13:07:41;21.98;;;10.13;;
42364;SDS011;28498;54.400;18.566;2023-03-01T13:13:02;20.85;;;10.40;;
42364;SDS011;28498;54.400;18.566;2023-03-01T13:15:35;20.58;;;10.10;;
42364;SDS011;28498;54.400;18.566;2023-03-01T13:20:54;21.00;;;9.77;;
42364;SDS011;28498;54.400;18.566;2023-03-01T13:23:25;17.10;;;9.45;;
42364;SDS011;28498;54.400;18.566;2023-03-01T13:31:06;17.48;;;9.25;;
42364;SDS011;28498;54.400;18.566;2023-03-01T13:33:39;19.15;;;10.27;;
42364;SDS011;28498;54.400;18.566;2023-03-01T13:36:06;19.92;;;10.18;;
42364;SDS011;28498;54.400;18.566;2023-03-01T13:38:41;18.45;;;9.32;;
42364;SDS011;28498;54.400;18.566;2023-03-01T13:41:15;20.33;;;10.65;;
42364;SDS011;28498;54.400;18.566;2023-03-01T13:43:44;19.52;;;10.18;;
42364;SDS011;28498;54.400;18.566;2023-03-01T13:46:17;23.08;;;10.48;;
42364;SDS011;28498;54.400;18.566;2023-03-01T13:48:52;20.27;;;10.13;;
42364;SDS011;28498;54.400;18.566;2023-03-01T13:51:23;22.10;;;10.65;;
42364;SDS011;28498;54.400;18.566;2023-03-01T13:53:52;20.65;;;10.90;;
42364;SDS011;28498;54.400;18.566;2023-03-01T13:56:24;18.48;;;9.82;;
42364;SDS011;28498;54.400;18.566;2023-03-01T14:04:02;20.52;;;10.82;;
42364;SDS011;28498;54.400;18.566;2023-03-01T14:06:43;21.95;;;10.77;;
42364;SDS011;28498;54.400;18.566;2023-03-01T14:09:18;21.45;;;10.95;;
42364;SDS011;28498;54.400;18.566;2023-03-01T14:11:54;21.38;;;10.18;;
42364;SDS011;28498;54.400;18.566;2023-03-01T14:17:52;18.65;;;10.45;;
42364;SDS011;28498;54.400;18.566;2023-03-01T14:20:41;15.75;;;9.45;;
42364;SDS011;28498;54.400;18.566;2023-03-01T14:23:13;18.98;;;9.23;;
42364;SDS011;28498;54.400;18.566;2023-03-01T14:26:02;22.00;;;9.77;;
42364;SDS011;28498;54.400;18.566;2023-03-01T14:28:30;19.70;;;9.77;;
42364;SDS011;28498;54.400;18.566;2023-03-01T14:31:04;24.45;;;10.48;;
42364;SDS011;28498;54.400;18.566;2023-03-01T14:34:19;17.13;;;9.38;;
42364;SDS011;28498;54.400;18.566;2023-03-01T14:36:50;20.63;;;10.00;;
42364;SDS011;28498;54.400;18.566;2023-03-01T14:39:19;17.20;;;10.10;;
42364;SDS011;28498;54.400;18.566;2023-03-01T14:41:50;19.25;;;10.27;;
42364;SDS011;28498;54.400;18.566;2023-03-01T14:44:21;20.98;;;9.77;;
42364;SDS011;28498;54.400;18.566;2023-03-01T14:46:54;22.25;;;11.15;;
42364;SDS011;28498;54.400;18.566;2023-03-01T14:49:29;19.98;;;10.43;;
42364;SDS011;28498;54.400;18.566;2023-03-01T14:52:04;17.52;;;9.82;;
42364;SDS011;28498;54.400;18.566;2023-03-01T14:57:18;18.80;;;9.85;;
42364;SDS011;28498;54.400;18.566;2023-03-01T14:59:54;20.50;;;10.73;;
42364;SDS011;28498;54.400;18.566;2023-03-01T15:02:24;21.10;;;9.55;;
42364;SDS011;28498;54.400;18.566;2023-03-01T15:04:57;17.85;;;9.85;;
42364;SDS011;28498;54.400;18.566;2023-03-01T15:07:31;25.33;;;10.35;;
42364;SDS011;28498;54.400;18.566;2023-03-01T15:10:02;21.52;;;8.82;;
42364;SDS011;28498;54.400;18.566;2023-03-01T15:12:35;20.15;;;10.02;;
42364;SDS011;28498;54.400;18.566;2023-03-01T15:17:56;18.05;;;9.60;;
42364;SDS011;28498;54.400;18.566;2023-03-01T15:20:25;19.17;;;10.48;;
42364;SDS011;28498;54.400;18.566;2023-03-01T15:22:55;21.35;;;10.10;;
42364;SDS011;28498;54.400;18.566;2023-03-01T15:25:27;20.05;;;10.20;;
42364;SDS011;28498;54.400;18.566;2023-03-01T15:27:56;19.95;;;10.68;;
42364;SDS011;28498;54.400;18.566;2023-03-01T15:30:34;21.40;;;9.85;;
42364;SDS011;28498;54.400;18.566;2023-03-01T15:35:54;19.25;;;10.07;;
42364;SDS011;28498;54.400;18.566;2023-03-01T15:41:23;17.95;;;10.20;;
42364;SDS011;28498;54.400;18.566;2023-03-01T15:44:00;21.45;;;10.45;;
42364;SDS011;28498;54.400;18.566;2023-03-01T15:46:55;17.55;;;9.80;;
42364;SDS011;28498;54.400;18.566;2023-03-01T15:49:42;20.98;;;11.68;;
42364;SDS011;28498;54.400;18.566;2023-03-01T15:52:25;28.63;;;12.70;;
42364;SDS011;28498;54.400;18.566;2023-03-01T15:55:01;31.00;;;15.55;;
42364;SDS011;28498;54.400;18.566;2023-03-01T15:57:30;28.05;;;14.30;;
42364;SDS011;28498;54.400;18.566;2023-03-01T15:59:57;24.17;;;12.25;;
42364;SDS011;28498;54.400;18.566;2023-03-01T16:02:24;24.90;;;13.05;;
42364;SDS011;28498;54.400;18.566;2023-03-01T16:04:51;21.92;;;10.90;;
42364;SDS011;28498;54.400;18.566;2023-03-01T16:07:19;21.50;;;10.75;;
42364;SDS011;28498;54.400;18.566;2023-03-01T16:09:47;18.45;;;8.88;;
42364;SDS011;28498;54.400;18.566;2023-03-01T16:12:14;16.20;;;8.90;;
42364;SDS011;28498;54.400;18.566;2023-03-01T16:14:42;20.08;;;9.98;;
42364;SDS011;28498;54.400;18.566;2023-03-01T16:17:10;16.15;;;8.68;;
42364;SDS011;28498;54.400;18.566;2023-03-01T16:19:37;29.02;;;10.20;;
42364;SDS011;28498;54.400;18.566;2023-03-01T16:22:04;19.35;;;10.13;;
42364;SDS011;28498;54.400;18.566;2023-03-01T16:24:31;17.75;;;8.95;;
42364;SDS011;28498;54.400;18.566;2023-03-01T16:26:58;17.70;;;9.63;;
42364;SDS011;28498;54.400;18.566;2023-03-01T16:29:25;16.58;;;8.93;;
42364;SDS011;28498;54.400;18.566;2023-03-01T16:31:53;20.23;;;9.50;;
42364;SDS011;28498;54.400;18.566;2023-03-01T16:34:20;24.40;;;10.70;;
42364;SDS011;28498;54.400;18.566;2023-03-01T16:36:48;22.23;;;10.75;;
42364;SDS011;28498;54.400;18.566;2023-03-01T16:39:15;19.73;;;9.80;;
42364;SDS011;28498;54.400;18.566;2023-03-01T16:41:42;21.15;;;10.60;;
42364;SDS011;28498;54.400;18.566;2023-03-01T16:44:10;18.85;;;9.07;;
42364;SDS011;28498;54.400;18.566;2023-03-01T16:46:37;19.55;;;10.40;;
42364;SDS011;28498;54.400;18.566;2023-03-01T16:49:04;18.40;;;9.50;;
42364;SDS011;28498;54.400;18.566;2023-03-01T16:51:31;19.90;;;9.63;;